createdAt,value
2023-03-07T00:00:17.039Z,5.07
2023-03-07T00:02:47.369Z,5.38
2023-03-07T00:05:17.667Z,5.28
2023-03-07T00:07:47.941Z,6.20
2023-03-07T00:10:21.070Z,8.32
2023-03-07T00:12:51.282Z,6.53
2023-03-07T00:15:21.804Z,5.35
2023-03-07T00:17:52.135Z,5.18
2023-03-07T00:20:22.611Z,5.90
2023-03-07T00:22:52.828Z,7.05
2023-03-07T00:25:25.625Z,5.82
2023-03-07T00:27:55.995Z,4.80
2023-03-07T00:30:26.193Z,4.95
2023-03-07T00:32:57.269Z,5.20
2023-03-07T00:35:27.439Z,4.85
2023-03-07T00:37:57.701Z,6.50
2023-03-07T00:40:30.538Z,7.38
2023-03-07T00:43:00.789Z,6.22
2023-03-07T00:45:31.077Z,6.22
2023-03-07T00:48:01.501Z,5.55
2023-03-07T00:50:32.178Z,5.97
2023-03-07T00:53:02.514Z,4.97
2023-03-07T00:55:35.516Z,5.28
2023-03-07T00:58:05.955Z,4.85
2023-03-07T01:00:36.355Z,4.82
2023-03-07T01:03:06.712Z,5.18
2023-03-07T01:05:42.028Z,5.63
2023-03-07T01:08:12.467Z,5.63
2023-03-07T01:10:46.123Z,7.00
2023-03-07T01:13:16.518Z,6.13
2023-03-07T01:15:46.795Z,5.15
2023-03-07T01:18:17.696Z,4.55
2023-03-07T01:20:48.197Z,4.20
2023-03-07T01:23:18.565Z,4.72
2023-03-07T01:25:52.015Z,4.63
2023-03-07T01:28:22.645Z,4.60
2023-03-07T01:31:01.099Z,4.78
2023-03-07T01:33:32.021Z,4.20
2023-03-07T01:36:02.409Z,4.93
2023-03-07T01:38:34.335Z,4.97
2023-03-07T01:41:10.476Z,4.03
2023-03-07T01:43:41.093Z,4.88
2023-03-07T01:46:43.525Z,4.50
2023-03-07T01:49:31.503Z,4.87
2023-03-07T01:52:09.450Z,4.70
2023-03-07T01:54:49.103Z,4.07
2023-03-07T01:57:29.826Z,4.55
2023-03-07T02:00:05.843Z,4.15
2023-03-07T02:02:45.186Z,4.97
2023-03-07T02:05:26.752Z,4.28
2023-03-07T02:07:58.951Z,4.07
2023-03-07T02:10:33.458Z,4.07
2023-03-07T02:13:06.711Z,4.38
2023-03-07T02:15:37.629Z,4.10
2023-03-07T02:18:08.606Z,4.60
2023-03-07T02:20:47.337Z,4.13
2023-03-07T02:23:26.441Z,4.55
2023-03-07T02:26:05.490Z,4.57
2023-03-07T02:28:42.546Z,4.20
2023-03-07T02:31:13.929Z,4.25
2023-03-07T02:33:44.825Z,4.25
2023-03-07T02:36:18.700Z,4.00
2023-03-07T02:39:00.952Z,4.00
2023-03-07T02:41:35.160Z,4.47
2023-03-07T02:44:13.821Z,4.90
2023-03-07T02:46:44.965Z,5.50
2023-03-07T02:49:15.600Z,4.55
2023-03-07T02:51:45.852Z,5.60
2023-03-07T02:54:16.231Z,4.80
2023-03-07T02:56:46.637Z,4.97
2023-03-07T02:59:19.488Z,4.75
2023-03-07T03:01:50.533Z,4.55
2023-03-07T03:04:21.458Z,6.00
2023-03-07T03:06:52.376Z,5.05
2023-03-07T03:09:23.604Z,4.80
2023-03-07T03:11:54.474Z,5.53
2023-03-07T03:14:32.536Z,5.65
2023-03-07T03:17:04.099Z,5.38
2023-03-07T03:19:34.862Z,5.80
2023-03-07T03:22:05.769Z,5.05
2023-03-07T03:24:42.982Z,5.80
2023-03-07T03:27:17.461Z,5.55
2023-03-07T03:29:52.789Z,6.07
2023-03-07T03:32:23.560Z,5.93
2023-03-07T03:34:54.428Z,4.97
2023-03-07T03:37:25.402Z,5.95
2023-03-07T03:39:56.763Z,5.65
2023-03-07T03:42:27.718Z,5.95
2023-03-07T03:45:01.155Z,5.95
2023-03-07T03:47:32.043Z,5.60
2023-03-07T03:50:02.947Z,5.57
2023-03-07T03:52:34.186Z,5.40
2023-03-07T03:55:05.069Z,6.22
2023-03-07T03:57:35.936Z,5.70
2023-03-07T04:00:14.194Z,5.65
2023-03-07T04:02:44.930Z,5.68
2023-03-07T04:05:19.887Z,6.50
2023-03-07T04:07:52.422Z,5.88
2023-03-07T04:10:23.080Z,5.72
2023-03-07T04:12:53.477Z,6.20
2023-03-07T04:15:26.422Z,5.68
2023-03-07T04:17:57.375Z,6.07
2023-03-07T04:20:27.654Z,6.20
2023-03-07T04:22:57.909Z,5.80
2023-03-07T04:25:28.292Z,5.70
2023-03-07T04:27:58.667Z,6.25
2023-03-07T04:30:32.079Z,5.97
2023-03-07T04:33:02.326Z,6.07
2023-03-07T04:35:32.951Z,6.43
2023-03-07T04:38:03.870Z,6.47
2023-03-07T04:40:34.357Z,5.85
2023-03-07T04:43:05.485Z,6.82
2023-03-07T04:45:40.101Z,6.95
2023-03-07T04:48:11.072Z,6.18
2023-03-07T04:50:41.241Z,5.97
2023-03-07T04:53:11.662Z,7.00
2023-03-07T04:55:41.958Z,7.00
2023-03-07T04:58:13.563Z,6.95
2023-03-07T05:00:48.326Z,7.32
2023-03-07T05:03:18.658Z,6.15
2023-03-07T05:05:48.906Z,7.13
2023-03-07T05:08:19.347Z,7.10
2023-03-07T05:10:50.133Z,6.10
2023-03-07T05:13:20.446Z,6.18
2023-03-07T05:15:56.494Z,6.35
2023-03-07T05:18:27.861Z,9.40
2023-03-07T05:21:00.173Z,9.60
2023-03-07T05:23:31.207Z,8.38
2023-03-07T05:26:01.487Z,7.90
2023-03-07T05:28:32.018Z,9.25
2023-03-07T05:31:05.171Z,9.05
2023-03-07T05:33:35.934Z,8.55
2023-03-07T05:36:06.858Z,8.43
2023-03-07T05:38:37.948Z,7.00
2023-03-07T05:41:08.418Z,6.93
2023-03-07T05:43:39.028Z,5.93
2023-03-07T05:46:11.942Z,6.68
2023-03-07T05:48:45.341Z,7.30
2023-03-07T05:51:15.807Z,6.10
2023-03-07T05:53:46.588Z,6.25
2023-03-07T05:56:17.830Z,5.72
2023-03-07T05:58:48.128Z,6.15
2023-03-07T06:01:21.077Z,5.22
2023-03-07T06:03:52.209Z,5.65
2023-03-07T06:06:23.253Z,5.25
2023-03-07T06:08:53.630Z,5.70
2023-03-07T06:11:23.962Z,5.97
2023-03-07T06:13:55.894Z,5.88
2023-03-07T06:16:28.825Z,5.25
2023-03-07T06:19:00.451Z,4.97
2023-03-07T06:21:31.528Z,4.97
2023-03-07T06:24:02.110Z,5.13
2023-03-07T06:26:32.531Z,4.25
2023-03-07T06:29:03.532Z,4.88
2023-03-07T06:31:36.443Z,5.20
2023-03-07T06:34:07.096Z,5.55
2023-03-07T06:36:37.648Z,4.88
2023-03-07T06:39:07.869Z,4.63
2023-03-07T06:41:38.918Z,4.75
2023-03-07T06:44:10.967Z,4.47
2023-03-07T06:46:44.455Z,8.70
2023-03-07T06:49:18.067Z,6.38
2023-03-07T06:51:50.569Z,5.57
2023-03-07T06:54:20.972Z,4.47
2023-03-07T06:56:52.333Z,4.32
2023-03-07T06:59:25.695Z,4.78
2023-03-07T07:01:58.734Z,5.22
2023-03-07T07:04:29.117Z,5.10
2023-03-07T07:06:59.300Z,5.15
2023-03-07T07:09:30.875Z,5.35
2023-03-07T07:12:01.266Z,5.47
2023-03-07T07:14:32.458Z,5.68
2023-03-07T07:17:05.677Z,5.13
2023-03-07T07:19:36.661Z,5.22
2023-03-07T07:22:08.766Z,6.10
2023-03-07T07:24:39.363Z,5.65
2023-03-07T07:27:12.552Z,6.50
2023-03-07T07:29:43.588Z,7.22
2023-03-07T07:32:16.582Z,8.50
2023-03-07T07:34:47.434Z,6.75
2023-03-07T07:37:18.000Z,6.28
2023-03-07T07:39:48.324Z,6.53
2023-03-07T07:42:18.841Z,5.68
2023-03-07T07:45:01.563Z,7.10
2023-03-07T07:47:34.692Z,5.97
2023-03-07T07:50:04.980Z,7.00
2023-03-07T07:52:37.568Z,5.80
2023-03-07T07:55:08.732Z,6.43
2023-03-07T07:57:39.479Z,6.15
2023-03-07T08:00:12.395Z,6.25
2023-03-07T08:02:45.415Z,6.60
2023-03-07T08:05:15.802Z,7.97
2023-03-07T08:07:46.290Z,6.97
2023-03-07T08:10:18.280Z,8.00
2023-03-07T08:12:52.337Z,8.25
2023-03-07T08:15:24.120Z,6.47
2023-03-07T08:17:57.068Z,7.13
2023-03-07T08:20:27.485Z,7.07
2023-03-07T08:22:58.270Z,7.68
2023-03-07T08:25:29.162Z,7.15
2023-03-07T08:27:59.629Z,7.35
2023-03-07T08:30:31.861Z,6.75
2023-03-07T08:33:04.838Z,7.28
2023-03-07T08:35:35.443Z,7.40
2023-03-07T08:38:06.620Z,7.13
2023-03-07T08:40:36.922Z,6.93
2023-03-07T08:43:07.629Z,7.32
2023-03-07T08:45:37.986Z,6.82
2023-03-07T08:48:12.372Z,6.15
2023-03-07T08:50:42.682Z,7.50
2023-03-07T08:53:13.633Z,6.90
2023-03-07T08:55:44.110Z,7.25
2023-03-07T08:58:14.522Z,8.10
2023-03-07T09:00:44.806Z,6.60
2023-03-07T09:03:17.590Z,6.88
2023-03-07T09:05:47.823Z,6.97
2023-03-07T09:08:18.178Z,7.38
2023-03-07T09:10:48.575Z,7.35
2023-03-07T09:13:19.595Z,7.45
2023-03-07T09:15:50.004Z,6.75
2023-03-07T09:18:23.338Z,7.03
2023-03-07T09:20:53.655Z,7.28
2023-03-07T09:23:23.988Z,7.35
2023-03-07T09:25:54.371Z,6.85
2023-03-07T09:28:24.679Z,6.60
2023-03-07T09:30:54.969Z,6.22
2023-03-07T09:33:27.945Z,6.05
2023-03-07T09:35:58.449Z,7.05
2023-03-07T09:38:28.792Z,9.30
2023-03-07T09:41:04.603Z,6.20
2023-03-07T09:43:46.976Z,6.32
2023-03-07T09:46:45.008Z,6.55
2023-03-07T09:49:28.633Z,6.95
2023-03-07T09:52:02.285Z,5.80
2023-03-07T09:54:41.710Z,7.05
2023-03-07T09:57:20.241Z,6.35
2023-03-07T09:59:53.963Z,6.68
2023-03-07T10:02:30.970Z,5.90
2023-03-07T10:05:12.958Z,6.10
2023-03-07T10:07:43.264Z,5.93
2023-03-07T10:10:20.626Z,5.75
2023-03-07T10:13:09.454Z,5.45
2023-03-07T10:15:48.424Z,6.25
2023-03-07T10:18:34.605Z,5.57
2023-03-07T10:21:16.665Z,5.47
2023-03-07T10:24:14.148Z,5.25
2023-03-07T10:26:50.925Z,5.38
2023-03-07T10:29:25.052Z,4.95
2023-03-07T10:31:59.953Z,5.68
2023-03-07T10:34:32.875Z,5.10
2023-03-07T10:37:13.891Z,5.50
2023-03-07T10:39:50.147Z,4.53
2023-03-07T10:42:22.168Z,4.85
2023-03-07T10:44:53.482Z,4.82
2023-03-07T10:47:25.505Z,5.20
2023-03-07T10:49:59.414Z,4.72
2023-03-07T10:52:37.859Z,4.53
2023-03-07T10:55:33.152Z,4.60
2023-03-07T10:58:17.429Z,4.80
2023-03-07T11:00:49.066Z,4.57
2023-03-07T11:03:42.504Z,4.70
2023-03-07T11:06:42.013Z,5.20
2023-03-07T11:09:29.190Z,4.82
2023-03-07T11:12:02.287Z,4.82
2023-03-07T11:14:34.724Z,5.30
2023-03-07T11:17:06.146Z,5.28
2023-03-07T11:19:43.107Z,5.20
2023-03-07T11:22:22.841Z,5.90
2023-03-07T11:25:00.125Z,6.15
2023-03-07T11:27:37.689Z,5.30
2023-03-07T11:30:23.932Z,4.75
2023-03-07T11:33:09.842Z,4.90
2023-03-07T11:36:01.866Z,5.13
2023-03-07T11:38:41.567Z,5.45
2023-03-07T11:41:19.562Z,4.78
2023-03-07T11:44:00.885Z,5.70
2023-03-07T11:46:40.759Z,5.65
2023-03-07T11:49:23.944Z,4.68
2023-03-07T11:52:03.749Z,5.47
2023-03-07T11:54:42.029Z,4.95
2023-03-07T11:57:27.725Z,4.30
2023-03-07T12:00:20.714Z,5.38
2023-03-07T12:03:05.221Z,4.95
2023-03-07T12:05:56.558Z,5.90
2023-03-07T12:08:40.401Z,4.57
2023-03-07T12:11:31.014Z,5.22
2023-03-07T12:14:16.017Z,5.85
2023-03-07T12:16:55.753Z,5.75
2023-03-07T12:19:54.429Z,5.57
2023-03-07T12:22:30.942Z,5.07
2023-03-07T12:25:14.247Z,6.00
2023-03-07T12:27:50.350Z,5.15
2023-03-07T12:30:27.984Z,5.67
2023-03-07T12:32:59.052Z,5.65
2023-03-07T12:35:34.173Z,4.65
2023-03-07T12:38:08.224Z,5.55
2023-03-07T12:40:42.949Z,5.70
2023-03-07T12:43:22.295Z,4.63
2023-03-07T12:46:01.370Z,5.95
2023-03-07T12:48:40.705Z,6.30
2023-03-07T12:51:19.055Z,6.03
2023-03-07T12:53:55.160Z,5.70
2023-03-07T12:56:30.817Z,6.23
2023-03-07T12:59:05.297Z,6.63
2023-03-07T13:01:41.489Z,6.35
2023-03-07T13:04:19.901Z,6.32
2023-03-07T13:06:50.843Z,5.60
2023-03-07T13:09:24.819Z,5.97
2023-03-07T13:12:11.822Z,6.10
2023-03-07T13:14:42.935Z,5.00
2023-03-07T13:17:16.758Z,6.03
2023-03-07T13:19:57.163Z,5.75
2023-03-07T13:23:01.939Z,6.03
2023-03-07T13:25:58.528Z,5.60
2023-03-07T13:28:40.909Z,5.80
2023-03-07T13:31:47.395Z,6.13
2023-03-07T13:34:51.706Z,5.22
2023-03-07T13:38:02.640Z,4.40
2023-03-07T13:40:53.876Z,5.68
2023-03-07T13:44:02.591Z,6.05
2023-03-07T13:46:49.470Z,5.22
2023-03-07T13:49:52.241Z,6.03
2023-03-07T13:52:39.472Z,6.75
2023-03-07T13:55:41.286Z,6.88
2023-03-07T13:58:29.446Z,6.57
2023-03-07T14:01:03.239Z,6.40
2023-03-07T14:03:38.958Z,6.90
2023-03-07T14:06:15.592Z,6.88
2023-03-07T14:08:47.330Z,6.55
2023-03-07T14:11:25.752Z,7.90
2023-03-07T14:14:34.712Z,8.10
2023-03-07T14:17:25.966Z,8.32
2023-03-07T14:20:09.594Z,9.27
2023-03-07T14:22:54.270Z,10.90
2023-03-07T14:25:26.955Z,7.75
2023-03-07T14:28:00.665Z,6.28
2023-03-07T14:30:35.839Z,5.38
2023-03-07T14:33:06.270Z,6.13
2023-03-07T14:35:42.620Z,6.35
2023-03-07T14:38:21.459Z,5.60
2023-03-07T14:41:31.730Z,5.53
2023-03-07T14:44:17.545Z,5.53
2023-03-07T14:47:02.928Z,5.50
2023-03-07T14:49:42.615Z,5.63
2023-03-07T14:52:30.028Z,7.50
2023-03-07T14:55:03.540Z,7.18
2023-03-07T14:57:37.221Z,7.38
2023-03-07T15:00:25.740Z,6.38
2023-03-07T15:03:01.222Z,6.05
2023-03-07T15:05:33.293Z,6.32
2023-03-07T15:08:03.925Z,5.88
2023-03-07T15:10:40.800Z,6.22
2023-03-07T15:13:17.402Z,5.95
2023-03-07T15:15:52.217Z,5.32
2023-03-07T15:18:28.707Z,5.57
2023-03-07T15:21:01.157Z,6.47
2023-03-07T15:23:32.041Z,6.45
2023-03-07T15:26:06.675Z,7.72
2023-03-07T15:28:40.324Z,7.80
2023-03-07T15:31:14.209Z,8.38
2023-03-07T15:33:47.212Z,8.13
2023-03-07T15:36:23.461Z,7.80
2023-03-07T15:38:55.235Z,8.13
2023-03-07T15:41:36.068Z,8.70
2023-03-07T15:44:19.605Z,9.75
2023-03-07T15:46:52.194Z,7.10
2023-03-07T15:49:29.178Z,7.32
2023-03-07T15:54:41.428Z,5.80
2023-03-07T15:57:22.069Z,6.10
2023-03-07T15:59:56.983Z,5.60
2023-03-07T16:02:43.090Z,5.80
2023-03-07T16:05:39.413Z,7.18
2023-03-07T16:08:15.565Z,6.50
2023-03-07T16:10:51.134Z,6.27
2023-03-07T16:13:24.531Z,5.63
2023-03-07T16:16:17.252Z,5.88
2023-03-07T16:18:47.680Z,5.47
2023-03-07T16:21:21.975Z,5.10
2023-03-07T16:23:52.828Z,4.35
2023-03-07T16:26:26.007Z,5.20
2023-03-07T16:28:56.978Z,5.30
2023-03-07T16:31:27.275Z,4.97
2023-03-07T16:33:57.917Z,5.20
2023-03-07T16:36:30.825Z,5.35
2023-03-07T16:39:01.163Z,4.63
2023-03-07T16:41:31.440Z,5.30
2023-03-07T16:44:02.704Z,4.78
2023-03-07T16:46:33.255Z,4.32
2023-03-07T16:49:03.940Z,4.90
2023-03-07T16:51:36.910Z,4.95
2023-03-07T16:54:07.466Z,5.03
2023-03-07T16:56:40.682Z,4.53
2023-03-07T16:59:13.164Z,4.90
2023-03-07T17:01:43.806Z,5.30
2023-03-07T17:04:14.198Z,4.78
2023-03-07T17:06:52.408Z,4.65
2023-03-07T17:09:28.121Z,5.32
2023-03-07T17:11:58.456Z,4.88
2023-03-07T17:14:29.032Z,5.35
2023-03-07T17:16:59.310Z,4.13
2023-03-07T17:19:31.258Z,4.63
2023-03-07T17:22:05.707Z,5.25
2023-03-07T17:24:36.063Z,4.78
2023-03-07T17:27:08.322Z,5.00
2023-03-07T17:29:41.235Z,5.35
2023-03-07T17:32:12.263Z,5.68
2023-03-07T17:34:42.958Z,5.15
2023-03-07T17:37:16.761Z,6.05
2023-03-07T17:39:48.521Z,5.30
2023-03-07T17:42:18.763Z,5.38
2023-03-07T17:44:48.984Z,5.55
2023-03-07T17:47:19.364Z,5.43
2023-03-07T17:49:50.397Z,6.82
2023-03-07T17:52:23.279Z,6.05
2023-03-07T17:54:53.767Z,5.68
2023-03-07T17:57:24.071Z,6.03
2023-03-07T17:59:54.429Z,5.30
2023-03-07T18:02:26.045Z,6.78
2023-03-07T18:04:56.371Z,5.95
2023-03-07T18:07:29.294Z,6.35
2023-03-07T18:10:07.903Z,5.88
2023-03-07T18:12:39.484Z,6.45
2023-03-07T18:15:14.672Z,6.30
2023-03-07T18:17:48.685Z,6.03
2023-03-07T18:20:21.656Z,6.18
2023-03-07T18:22:55.044Z,5.10
2023-03-07T18:25:25.782Z,5.88
2023-03-07T18:27:56.262Z,5.93
2023-03-07T18:30:26.751Z,6.45
2023-03-07T18:32:57.254Z,6.30
2023-03-07T18:35:27.518Z,5.90
2023-03-07T18:38:01.689Z,5.82
2023-03-07T18:40:31.945Z,5.75
2023-03-07T18:43:02.205Z,5.65
2023-03-07T18:45:32.589Z,5.80
2023-03-07T18:48:02.811Z,6.10
2023-03-07T18:50:33.027Z,5.50
2023-03-07T18:53:06.011Z,6.32
2023-03-07T18:55:40.008Z,5.82
2023-03-07T18:58:10.367Z,6.15
2023-03-07T19:00:40.667Z,6.30
2023-03-07T19:03:11.135Z,5.65
2023-03-07T19:05:45.672Z,6.28
2023-03-07T19:08:19.311Z,5.95
2023-03-07T19:10:49.702Z,5.78
2023-03-07T19:13:19.960Z,6.30
2023-03-07T19:15:50.177Z,6.38
2023-03-07T19:18:20.511Z,6.60
2023-03-07T19:20:50.845Z,10.40
2023-03-07T19:23:24.080Z,9.02
2023-03-07T19:25:54.419Z,8.05
2023-03-07T19:28:25.506Z,7.07
2023-03-07T19:30:55.805Z,7.10
2023-03-07T19:33:26.098Z,6.97
2023-03-07T19:36:05.320Z,7.65
2023-03-07T19:38:38.511Z,7.45
2023-03-07T19:41:12.350Z,7.38
2023-03-07T19:43:42.877Z,7.15
2023-03-07T19:46:14.681Z,7.53
2023-03-07T19:48:45.492Z,7.47
2023-03-07T19:51:17.643Z,7.03
2023-03-07T19:53:51.268Z,7.47
2023-03-07T19:56:23.582Z,7.05
2023-03-07T19:58:54.995Z,7.28
2023-03-07T20:01:26.747Z,7.47
2023-03-07T20:03:57.518Z,7.90
2023-03-07T20:06:29.966Z,7.03
2023-03-07T20:09:03.710Z,7.72
2023-03-07T20:11:36.161Z,7.53
2023-03-07T20:14:07.888Z,8.32
2023-03-07T20:16:38.895Z,8.13
2023-03-07T20:19:11.421Z,8.60
2023-03-07T20:21:43.478Z,8.23
2023-03-07T20:24:16.459Z,8.60
2023-03-07T20:26:47.587Z,9.80
2023-03-07T20:29:18.217Z,8.82
2023-03-07T20:31:50.915Z,9.38
2023-03-07T20:34:23.071Z,9.68
2023-03-07T20:36:55.004Z,15.15
2023-03-07T20:39:27.897Z,12.55
2023-03-07T20:41:58.250Z,9.95
2023-03-07T20:44:28.531Z,9.05
2023-03-07T20:46:58.860Z,9.52
2023-03-07T20:49:29.656Z,10.07
2023-03-07T20:51:59.902Z,10.15
2023-03-07T20:54:32.869Z,11.60
2023-03-07T20:57:03.200Z,9.68
2023-03-07T20:59:33.556Z,10.02
2023-03-07T21:02:05.675Z,10.25
2023-03-07T21:04:36.143Z,11.18
2023-03-07T21:07:06.526Z,10.35
2023-03-07T21:09:39.649Z,10.85
2023-03-07T21:12:13.132Z,10.90
2023-03-07T21:14:43.673Z,9.75
2023-03-07T21:17:14.908Z,11.18
2023-03-07T21:19:45.254Z,10.77
2023-03-07T21:22:15.618Z,11.07
2023-03-07T21:24:48.564Z,11.25
2023-03-07T21:27:18.840Z,11.73
2023-03-07T21:29:49.136Z,13.00
2023-03-07T21:32:19.486Z,9.95
2023-03-07T21:34:49.754Z,10.65
2023-03-07T21:37:20.732Z,10.80
2023-03-07T21:39:53.601Z,10.20
2023-03-07T21:42:23.827Z,9.80
2023-03-07T21:44:54.202Z,11.85
2023-03-07T21:47:24.481Z,15.10
2023-03-07T21:49:54.741Z,10.70
2023-03-07T21:52:25.257Z,11.15
2023-03-07T21:54:58.287Z,12.00
2023-03-07T21:57:28.532Z,12.63
2023-03-07T21:59:58.833Z,11.95
2023-03-07T22:02:29.184Z,12.65
2023-03-07T22:04:59.525Z,10.55
2023-03-07T22:07:29.825Z,13.52
2023-03-07T22:10:02.807Z,13.20
2023-03-07T22:12:33.970Z,11.38
2023-03-07T22:15:04.592Z,12.77
2023-03-07T22:17:34.927Z,13.00
2023-03-07T22:20:05.428Z,12.50
2023-03-07T22:22:35.719Z,11.32
2023-03-07T22:25:09.613Z,12.00
2023-03-07T22:27:40.218Z,10.93
2023-03-07T22:30:12.796Z,12.55
2023-03-07T22:32:43.134Z,12.38
2023-03-07T22:35:13.710Z,10.20
2023-03-07T22:37:44.042Z,11.50
2023-03-07T22:40:17.243Z,10.15
2023-03-07T22:42:47.491Z,11.15
2023-03-07T22:45:17.847Z,11.05
2023-03-07T22:47:48.201Z,9.93
2023-03-07T22:50:19.011Z,12.13
2023-03-07T22:52:49.270Z,11.23
2023-03-07T22:55:22.218Z,9.48
2023-03-07T22:57:52.518Z,11.63
2023-03-07T23:00:23.655Z,10.20
2023-03-07T23:02:53.964Z,10.35
2023-03-07T23:05:24.334Z,10.68
2023-03-07T23:07:54.550Z,9.70
2023-03-07T23:10:27.488Z,8.75
2023-03-07T23:12:57.995Z,8.38
2023-03-07T23:15:28.493Z,9.00
2023-03-07T23:17:58.983Z,7.32
2023-03-07T23:20:30.358Z,7.60
2023-03-07T23:23:00.674Z,7.63
2023-03-07T23:25:33.483Z,7.80
2023-03-07T23:28:03.783Z,7.25
2023-03-07T23:30:34.113Z,6.93
2023-03-07T23:33:04.379Z,6.88
2023-03-07T23:35:35.789Z,7.38
2023-03-07T23:38:06.904Z,7.18
2023-03-07T23:40:39.933Z,8.05
2023-03-07T23:43:10.930Z,7.43
2023-03-07T23:45:41.275Z,6.10
2023-03-07T23:48:11.501Z,5.50
2023-03-07T23:50:41.757Z,5.60
2023-03-07T23:53:11.974Z,6.60
2023-03-07T23:55:46.583Z,5.07
2023-03-07T23:58:16.998Z,5.07
